La Gomera > ESTACION METEOROLÓGICA Agulo

DATOS ACTUALES Online

Ultima actulizacion 1 h 6 minutos

14.2 ºC

Temperatura

100

Humedad (%)

Presión (mb)

1.8

Precipitación (mm)

2.2 SO

Viento (Km/h)

DATOS DIARIOS

Temperatura últimas 24 horas (ºC)

Humedad últimas 24 horas (%)

Presión atmosférica últimas 24 horas (mb)

Precipitaciones últimas 23 horas (mm)

Viento últimas 24 horas (Km/h)

Hora Temperatura (°C) ºC Precipitación (mm) mm Presión (mb) mb Humedad (%) % Viento (Km/h) km/h
28 - 11:00 15.8 0.2 0 89 1.6 SO
28 - 12:00 15.3 0.2 0 92 1.9 S
28 - 13:00 15.4 0.2 0 95 1.7 S
28 - 14:00 14.8 0.2 0 98 1.8 S
28 - 15:00 15.3 0.2 0 99 2.2 SO
28 - 16:00 16.2 0.2 0 88 1.7 S
28 - 17:00
28 - 18:00 15.6 0.2 0 98 2.3 S
28 - 19:00 14.8 0.2 0 100 2.4 S
28 - 20:00 14.4 0.2 0 100 2.2 SO
28 - 21:00 14.4 0.2 0 100 2 S
28 - 22:00 13.8 0.2 0 100 2.1 SO
28 - 23:00 14 0 0 100 2.6 SO
29 - 00:00 13.7 0 0 100 2.1 S
29 - 01:00 14.3 0 0 100 2.1 S
29 - 02:00 14.2 0 0 100 2.1 S
29 - 03:00 14.1 0.4 0 100 2.2 SO
29 - 04:00 13.6 0.4 0 100 2 SO
29 - 05:00 13.8 0.8 0 100 2 SO
29 - 06:00 13.7 1 0 100 2.4 SO
29 - 07:00 13.2 1 0 100 1.9 SO
29 - 08:00 13.9 1.4 0 100 2.6 SO
29 - 09:00 14 1.8 0 100 2.2 SO
29 - 10:00 14.2 1.8 0 100 2.2 SO
29 - 11:00
Apalmet utiliza cookies propias y de terceros para mejorar la usabilidad y la experiencia web. Política de cookies.